sensor_id;sensor_type;location;lat;lon;timestamp;P1;durP1;ratioP1;P2;durP2;ratioP2
10056;SDS011;5068;51.286;7.518;2022-07-23T00:00:21;11.02;;;9.98;;
10056;SDS011;5068;51.286;7.518;2022-07-23T00:01:55;11.57;;;9.98;;
10056;SDS011;5068;51.286;7.518;2022-07-23T00:03:28;11.35;;;10.23;;
10056;SDS011;5068;51.286;7.518;2022-07-23T00:05:02;11.75;;;9.88;;
10056;SDS011;5068;51.286;7.518;2022-07-23T00:06:36;12.23;;;10.07;;
10056;SDS011;5068;51.286;7.518;2022-07-23T00:08:10;11.73;;;10.48;;
10056;SDS011;5068;51.286;7.518;2022-07-23T00:09:44;13.50;;;12.07;;
10056;SDS011;5068;51.286;7.518;2022-07-23T00:11:18;16.58;;;12.95;;
10056;SDS011;5068;51.286;7.518;2022-07-23T00:12:54;15.55;;;13.18;;
10056;SDS011;5068;51.286;7.518;2022-07-23T00:14:28;14.90;;;12.55;;
10056;SDS011;5068;51.286;7.518;2022-07-23T00:16:01;17.45;;;13.35;;
10056;SDS011;5068;51.286;7.518;2022-07-23T00:17:35;15.45;;;12.98;;
10056;SDS011;5068;51.286;7.518;2022-07-23T00:19:10;14.70;;;13.20;;
10056;SDS011;5068;51.286;7.518;2022-07-23T00:20:43;21.40;;;13.88;;
10056;SDS011;5068;51.286;7.518;2022-07-23T00:22:17;15.27;;;12.82;;
10056;SDS011;5068;51.286;7.518;2022-07-23T00:23:51;14.52;;;13.02;;
10056;SDS011;5068;51.286;7.518;2022-07-23T00:25:24;14.88;;;13.38;;
10056;SDS011;5068;51.286;7.518;2022-07-23T00:27:01;14.50;;;12.98;;
10056;SDS011;5068;51.286;7.518;2022-07-23T00:28:37;16.25;;;13.82;;
10056;SDS011;5068;51.286;7.518;2022-07-23T00:30:11;15.15;;;12.95;;
10056;SDS011;5068;51.286;7.518;2022-07-23T00:31:48;14.63;;;12.43;;
10056;SDS011;5068;51.286;7.518;2022-07-23T00:33:22;13.98;;;12.43;;
10056;SDS011;5068;51.286;7.518;2022-07-23T00:34:55;14.07;;;12.48;;
10056;SDS011;5068;51.286;7.518;2022-07-23T00:36:28;15.13;;;13.32;;
10056;SDS011;5068;51.286;7.518;2022-07-23T00:38:04;15.48;;;12.80;;
10056;SDS011;5068;51.286;7.518;2022-07-23T00:39:37;16.88;;;13.85;;
10056;SDS011;5068;51.286;7.518;2022-07-23T00:41:11;13.40;;;12.02;;
10056;SDS011;5068;51.286;7.518;2022-07-23T00:42:45;13.95;;;12.15;;
10056;SDS011;5068;51.286;7.518;2022-07-23T00:44:20;17.33;;;13.90;;
10056;SDS011;5068;51.286;7.518;2022-07-23T00:45:55;16.77;;;14.18;;
10056;SDS011;5068;51.286;7.518;2022-07-23T00:47:30;18.00;;;14.02;;
10056;SDS011;5068;51.286;7.518;2022-07-23T00:49:04;16.10;;;13.30;;
10056;SDS011;5068;51.286;7.518;2022-07-23T00:50:37;14.00;;;12.55;;
10056;SDS011;5068;51.286;7.518;2022-07-23T00:52:10;16.40;;;13.57;;
10056;SDS011;5068;51.286;7.518;2022-07-23T00:53:44;14.23;;;12.75;;
10056;SDS011;5068;51.286;7.518;2022-07-23T00:55:18;14.65;;;13.13;;
10056;SDS011;5068;51.286;7.518;2022-07-23T00:56:51;15.32;;;13.38;;
10056;SDS011;5068;51.286;7.518;2022-07-23T00:58:25;15.63;;;13.93;;
10056;SDS011;5068;51.286;7.518;2022-07-23T01:00:00;15.38;;;13.73;;
10056;SDS011;5068;51.286;7.518;2022-07-23T01:01:34;15.82;;;14.02;;
10056;SDS011;5068;51.286;7.518;2022-07-23T01:03:09;15.50;;;13.88;;
10056;SDS011;5068;51.286;7.518;2022-07-23T01:04:43;15.57;;;13.52;;
10056;SDS011;5068;51.286;7.518;2022-07-23T01:06:16;17.92;;;13.75;;
10056;SDS011;5068;51.286;7.518;2022-07-23T01:07:50;15.05;;;13.52;;
10056;SDS011;5068;51.286;7.518;2022-07-23T01:09:27;14.57;;;13.07;;
10056;SDS011;5068;51.286;7.518;2022-07-23T01:11:02;14.93;;;13.40;;
10056;SDS011;5068;51.286;7.518;2022-07-23T01:12:36;15.00;;;13.43;;
10056;SDS011;5068;51.286;7.518;2022-07-23T01:14:10;15.35;;;13.75;;
10056;SDS011;5068;51.286;7.518;2022-07-23T01:15:48;16.25;;;13.10;;
10056;SDS011;5068;51.286;7.518;2022-07-23T01:17:22;14.13;;;12.73;;
10056;SDS011;5068;51.286;7.518;2022-07-23T01:18:56;15.95;;;13.63;;
10056;SDS011;5068;51.286;7.518;2022-07-23T01:20:30;14.85;;;12.75;;
10056;SDS011;5068;51.286;7.518;2022-07-23T01:22:07;14.90;;;12.77;;
10056;SDS011;5068;51.286;7.518;2022-07-23T01:23:43;16.88;;;13.13;;
10056;SDS011;5068;51.286;7.518;2022-07-23T01:25:17;13.68;;;12.25;;
10056;SDS011;5068;51.286;7.518;2022-07-23T01:26:58;14.82;;;13.20;;
10056;SDS011;5068;51.286;7.518;2022-07-23T01:28:32;16.02;;;13.82;;
10056;SDS011;5068;51.286;7.518;2022-07-23T01:30:05;15.98;;;14.27;;
10056;SDS011;5068;51.286;7.518;2022-07-23T01:31:39;15.38;;;13.73;;
10056;SDS011;5068;51.286;7.518;2022-07-23T01:33:14;15.60;;;13.77;;
10056;SDS011;5068;51.286;7.518;2022-07-23T01:34:48;14.20;;;12.80;;
10056;SDS011;5068;51.286;7.518;2022-07-23T01:36:21;15.30;;;12.98;;
10056;SDS011;5068;51.286;7.518;2022-07-23T01:37:55;15.30;;;13.60;;
10056;SDS011;5068;51.286;7.518;2022-07-23T01:39:29;15.30;;;13.45;;
10056;SDS011;5068;51.286;7.518;2022-07-23T01:41:04;14.45;;;12.93;;
10056;SDS011;5068;51.286;7.518;2022-07-23T01:42:38;15.10;;;13.38;;
10056;SDS011;5068;51.286;7.518;2022-07-23T01:44:15;13.88;;;12.40;;
10056;SDS011;5068;51.286;7.518;2022-07-23T01:45:49;13.90;;;12.38;;
10056;SDS011;5068;51.286;7.518;2022-07-23T01:47:23;13.82;;;12.27;;
10056;SDS011;5068;51.286;7.518;2022-07-23T01:48:59;13.50;;;12.00;;
10056;SDS011;5068;51.286;7.518;2022-07-23T01:50:54;15.57;;;12.27;;
10056;SDS011;5068;51.286;7.518;2022-07-23T01:52:41;13.52;;;11.93;;
10056;SDS011;5068;51.286;7.518;2022-07-23T01:54:14;16.58;;;13.05;;
10056;SDS011;5068;51.286;7.518;2022-07-23T01:55:49;14.70;;;12.55;;
10056;SDS011;5068;51.286;7.518;2022-07-23T01:57:22;14.15;;;12.70;;
10056;SDS011;5068;51.286;7.518;2022-07-23T01:58:55;15.05;;;13.45;;
10056;SDS011;5068;51.286;7.518;2022-07-23T02:00:30;13.70;;;12.30;;
10056;SDS011;5068;51.286;7.518;2022-07-23T02:02:04;14.68;;;13.18;;
10056;SDS011;5068;51.286;7.518;2022-07-23T02:03:37;14.82;;;13.32;;
10056;SDS011;5068;51.286;7.518;2022-07-23T02:05:11;15.75;;;14.05;;
10056;SDS011;5068;51.286;7.518;2022-07-23T02:06:44;15.55;;;13.70;;
10056;SDS011;5068;51.286;7.518;2022-07-23T02:08:17;14.77;;;12.70;;
10056;SDS011;5068;51.286;7.518;2022-07-23T02:09:51;14.88;;;13.32;;
10056;SDS011;5068;51.286;7.518;2022-07-23T02:11:26;14.27;;;12.52;;
10056;SDS011;5068;51.286;7.518;2022-07-23T02:12:59;13.40;;;12.00;;
10056;SDS011;5068;51.286;7.518;2022-07-23T02:14:33;13.13;;;11.68;;
10056;SDS011;5068;51.286;7.518;2022-07-23T02:16:09;14.18;;;12.35;;
10056;SDS011;5068;51.286;7.518;2022-07-23T02:17:43;13.93;;;12.43;;
10056;SDS011;5068;51.286;7.518;2022-07-23T02:19:16;15.40;;;13.45;;
10056;SDS011;5068;51.286;7.518;2022-07-23T02:20:50;13.77;;;12.27;;
10056;SDS011;5068;51.286;7.518;2022-07-23T02:22:24;14.85;;;12.60;;
10056;SDS011;5068;51.286;7.518;2022-07-23T02:23:58;14.30;;;12.80;;
10056;SDS011;5068;51.286;7.518;2022-07-23T02:25:32;14.90;;;13.15;;
10056;SDS011;5068;51.286;7.518;2022-07-23T02:27:08;14.48;;;12.98;;
10056;SDS011;5068;51.286;7.518;2022-07-23T02:28:41;14.13;;;12.63;;
10056;SDS011;5068;51.286;7.518;2022-07-23T02:30:15;13.88;;;12.48;;
10056;SDS011;5068;51.286;7.518;2022-07-23T02:31:49;14.85;;;13.20;;
10056;SDS011;5068;51.286;7.518;2022-07-23T02:33:23;14.15;;;12.68;;
10056;SDS011;5068;51.286;7.518;2022-07-23T02:34:58;13.75;;;12.35;;
10056;SDS011;5068;51.286;7.518;2022-07-23T02:36:31;15.98;;;12.80;;
10056;SDS011;5068;51.286;7.518;2022-07-23T02:38:07;13.52;;;12.13;;
10056;SDS011;5068;51.286;7.518;2022-07-23T02:39:40;13.50;;;12.10;;
10056;SDS011;5068;51.286;7.518;2022-07-23T02:41:16;13.35;;;11.98;;
10056;SDS011;5068;51.286;7.518;2022-07-23T02:42:51;12.95;;;11.48;;
10056;SDS011;5068;51.286;7.518;2022-07-23T02:44:25;14.05;;;12.48;;
10056;SDS011;5068;51.286;7.518;2022-07-23T02:46:00;13.45;;;12.07;;
10056;SDS011;5068;51.286;7.518;2022-07-23T02:47:34;13.02;;;11.73;;
10056;SDS011;5068;51.286;7.518;2022-07-23T02:49:08;13.80;;;12.40;;
10056;SDS011;5068;51.286;7.518;2022-07-23T02:50:42;13.80;;;12.30;;
10056;SDS011;5068;51.286;7.518;2022-07-23T02:52:18;16.58;;;11.90;;
10056;SDS011;5068;51.286;7.518;2022-07-23T02:53:51;12.68;;;11.48;;
10056;SDS011;5068;51.286;7.518;2022-07-23T02:55:25;14.00;;;12.50;;
10056;SDS011;5068;51.286;7.518;2022-07-23T02:56:59;12.30;;;10.93;;
10056;SDS011;5068;51.286;7.518;2022-07-23T02:58:33;13.35;;;11.85;;
10056;SDS011;5068;51.286;7.518;2022-07-23T03:01:59;14.60;;;11.57;;
10056;SDS011;5068;51.286;7.518;2022-07-23T03:03:32;12.13;;;10.82;;
10056;SDS011;5068;51.286;7.518;2022-07-23T03:05:06;12.45;;;10.95;;
10056;SDS011;5068;51.286;7.518;2022-07-23T03:06:43;12.98;;;11.15;;
10056;SDS011;5068;51.286;7.518;2022-07-23T03:08:16;13.18;;;11.30;;
10056;SDS011;5068;51.286;7.518;2022-07-23T03:09:54;11.38;;;10.23;;
10056;SDS011;5068;51.286;7.518;2022-07-23T03:11:30;11.88;;;10.63;;
10056;SDS011;5068;51.286;7.518;2022-07-23T03:13:04;12.35;;;11.05;;
10056;SDS011;5068;51.286;7.518;2022-07-23T03:14:38;13.65;;;10.63;;
10056;SDS011;5068;51.286;7.518;2022-07-23T03:16:12;12.68;;;10.85;;
10056;SDS011;5068;51.286;7.518;2022-07-23T03:17:46;10.82;;;9.82;;
10056;SDS011;5068;51.286;7.518;2022-07-23T03:19:19;11.77;;;10.57;;
10056;SDS011;5068;51.286;7.518;2022-07-23T03:20:54;11.88;;;10.68;;
10056;SDS011;5068;51.286;7.518;2022-07-23T03:22:28;11.10;;;10.00;;
10056;SDS011;5068;51.286;7.518;2022-07-23T03:24:02;11.63;;;10.50;;
10056;SDS011;5068;51.286;7.518;2022-07-23T03:25:36;15.93;;;10.80;;
10056;SDS011;5068;51.286;7.518;2022-07-23T03:27:08;12.63;;;10.88;;
10056;SDS011;5068;51.286;7.518;2022-07-23T03:28:42;12.88;;;10.80;;
10056;SDS011;5068;51.286;7.518;2022-07-23T03:30:17;12.90;;;11.45;;
10056;SDS011;5068;51.286;7.518;2022-07-23T03:31:51;13.40;;;11.45;;
10056;SDS011;5068;51.286;7.518;2022-07-23T03:33:24;12.98;;;11.52;;
10056;SDS011;5068;51.286;7.518;2022-07-23T03:34:59;15.38;;;12.13;;
10056;SDS011;5068;51.286;7.518;2022-07-23T03:36:32;12.82;;;10.73;;
10056;SDS011;5068;51.286;7.518;2022-07-23T03:38:06;11.23;;;9.60;;
10056;SDS011;5068;51.286;7.518;2022-07-23T03:39:39;12.57;;;11.27;;
10056;SDS011;5068;51.286;7.518;2022-07-23T03:41:13;16.45;;;11.70;;
10056;SDS011;5068;51.286;7.518;2022-07-23T03:42:48;16.33;;;12.32;;
10056;SDS011;5068;51.286;7.518;2022-07-23T03:44:21;15.60;;;13.18;;
10056;SDS011;5068;51.286;7.518;2022-07-23T03:45:56;14.13;;;12.23;;
10056;SDS011;5068;51.286;7.518;2022-07-23T03:47:30;30.77;;;13.77;;
10056;SDS011;5068;51.286;7.518;2022-07-23T03:49:03;42.53;;;13.95;;
10056;SDS011;5068;51.286;7.518;2022-07-23T03:50:38;17.60;;;12.88;;
10056;SDS011;5068;51.286;7.518;2022-07-23T03:52:12;21.15;;;13.38;;
10056;SDS011;5068;51.286;7.518;2022-07-23T03:53:45;13.82;;;12.32;;
10056;SDS011;5068;51.286;7.518;2022-07-23T03:55:20;14.90;;;13.23;;
10056;SDS011;5068;51.286;7.518;2022-07-23T03:56:54;14.10;;;12.52;;
10056;SDS011;5068;51.286;7.518;2022-07-23T03:58:27;19.95;;;13.48;;
10056;SDS011;5068;51.286;7.518;2022-07-23T04:00:02;15.32;;;11.85;;
10056;SDS011;5068;51.286;7.518;2022-07-23T04:01:56;13.13;;;11.60;;
10056;SDS011;5068;51.286;7.518;2022-07-23T04:03:30;14.30;;;11.93;;
10056;SDS011;5068;51.286;7.518;2022-07-23T04:05:04;22.73;;;14.18;;
10056;SDS011;5068;51.286;7.518;2022-07-23T04:06:39;20.77;;;13.38;;
10056;SDS011;5068;51.286;7.518;2022-07-23T04:08:13;21.08;;;13.55;;
10056;SDS011;5068;51.286;7.518;2022-07-23T04:09:49;15.13;;;13.52;;
10056;SDS011;5068;51.286;7.518;2022-07-23T04:11:22;21.05;;;13.23;;
10056;SDS011;5068;51.286;7.518;2022-07-23T04:12:56;19.58;;;13.27;;
10056;SDS011;5068;51.286;7.518;2022-07-23T04:14:29;18.02;;;12.02;;
10056;SDS011;5068;51.286;7.518;2022-07-23T04:16:03;15.35;;;12.35;;
10056;SDS011;5068;51.286;7.518;2022-07-23T04:17:39;18.38;;;12.18;;
10056;SDS011;5068;51.286;7.518;2022-07-23T04:19:13;16.77;;;12.30;;
10056;SDS011;5068;51.286;7.518;2022-07-23T04:20:58;24.33;;;13.50;;
10056;SDS011;5068;51.286;7.518;2022-07-23T04:22:32;15.73;;;12.75;;
10056;SDS011;5068;51.286;7.518;2022-07-23T04:24:06;12.90;;;11.50;;
10056;SDS011;5068;51.286;7.518;2022-07-23T04:25:40;15.57;;;12.43;;
10056;SDS011;5068;51.286;7.518;2022-07-23T04:27:13;20.77;;;12.50;;
10056;SDS011;5068;51.286;7.518;2022-07-23T04:28:47;17.33;;;11.75;;
10056;SDS011;5068;51.286;7.518;2022-07-23T04:30:20;15.73;;;11.73;;
10056;SDS011;5068;51.286;7.518;2022-07-23T04:31:54;15.65;;;11.68;;
10056;SDS011;5068;51.286;7.518;2022-07-23T04:33:30;12.50;;;11.15;;
10056;SDS011;5068;51.286;7.518;2022-07-23T04:35:08;13.02;;;10.70;;
10056;SDS011;5068;51.286;7.518;2022-07-23T04:36:41;12.10;;;10.68;;
10056;SDS011;5068;51.286;7.518;2022-07-23T04:38:15;15.77;;;11.23;;
10056;SDS011;5068;51.286;7.518;2022-07-23T04:39:49;11.05;;;9.82;;
10056;SDS011;5068;51.286;7.518;2022-07-23T04:41:23;12.27;;;10.88;;
10056;SDS011;5068;51.286;7.518;2022-07-23T04:42:56;17.92;;;10.88;;
10056;SDS011;5068;51.286;7.518;2022-07-23T04:44:30;13.05;;;11.18;;
10056;SDS011;5068;51.286;7.518;2022-07-23T04:46:04;12.65;;;10.13;;
10056;SDS011;5068;51.286;7.518;2022-07-23T04:47:46;14.05;;;10.18;;
10056;SDS011;5068;51.286;7.518;2022-07-23T04:49:21;12.88;;;10.50;;
10056;SDS011;5068;51.286;7.518;2022-07-23T04:50:55;17.15;;;10.55;;
10056;SDS011;5068;51.286;7.518;2022-07-23T04:52:31;17.73;;;11.00;;
10056;SDS011;5068;51.286;7.518;2022-07-23T04:54:05;13.13;;;11.13;;
10056;SDS011;5068;51.286;7.518;2022-07-23T04:55:38;12.35;;;11.05;;
10056;SDS011;5068;51.286;7.518;2022-07-23T04:57:12;11.95;;;10.75;;
10056;SDS011;5068;51.286;7.518;2022-07-23T04:58:45;11.77;;;10.57;;
10056;SDS011;5068;51.286;7.518;2022-07-23T05:00:18;13.50;;;10.35;;
10056;SDS011;5068;51.286;7.518;2022-07-23T05:01:52;11.07;;;9.65;;
10056;SDS011;5068;51.286;7.518;2022-07-23T05:03:25;10.05;;;9.07;;
10056;SDS011;5068;51.286;7.518;2022-07-23T05:05:00;12.85;;;10.20;;
10056;SDS011;5068;51.286;7.518;2022-07-23T05:06:34;11.40;;;10.20;;
10056;SDS011;5068;51.286;7.518;2022-07-23T05:08:08;10.77;;;8.90;;
10056;SDS011;5068;51.286;7.518;2022-07-23T05:09:42;11.25;;;8.27;;
10056;SDS011;5068;51.286;7.518;2022-07-23T05:11:16;11.30;;;9.80;;
10056;SDS011;5068;51.286;7.518;2022-07-23T05:12:57;10.13;;;9.13;;
10056;SDS011;5068;51.286;7.518;2022-07-23T05:14:30;19.45;;;9.63;;
10056;SDS011;5068;51.286;7.518;2022-07-23T05:16:04;22.70;;;9.07;;
10056;SDS011;5068;51.286;7.518;2022-07-23T05:17:40;17.48;;;9.30;;
10056;SDS011;5068;51.286;7.518;2022-07-23T05:19:17;13.52;;;9.00;;
10056;SDS011;5068;51.286;7.518;2022-07-23T05:20:57;40.85;;;9.98;;
10056;SDS011;5068;51.286;7.518;2022-07-23T05:22:30;12.13;;;8.57;;
10056;SDS011;5068;51.286;7.518;2022-07-23T05:24:05;11.88;;;8.45;;
10056;SDS011;5068;51.286;7.518;2022-07-23T05:25:39;17.08;;;8.15;;
10056;SDS011;5068;51.286;7.518;2022-07-23T05:27:13;10.45;;;9.07;;
10056;SDS011;5068;51.286;7.518;2022-07-23T05:28:47;12.90;;;9.13;;
10056;SDS011;5068;51.286;7.518;2022-07-23T05:30:22;16.58;;;9.23;;
10056;SDS011;5068;51.286;7.518;2022-07-23T05:32:01;19.08;;;8.27;;
10056;SDS011;5068;51.286;7.518;2022-07-23T05:33:37;10.10;;;8.40;;
10056;SDS011;5068;51.286;7.518;2022-07-23T05:35:10;10.18;;;9.02;;
10056;SDS011;5068;51.286;7.518;2022-07-23T05:36:50;9.18;;;8.30;;
10056;SDS011;5068;51.286;7.518;2022-07-23T05:38:24;18.92;;;8.07;;
10056;SDS011;5068;51.286;7.518;2022-07-23T05:40:01;9.45;;;8.55;;
10056;SDS011;5068;51.286;7.518;2022-07-23T05:41:35;8.52;;;7.72;;
10056;SDS011;5068;51.286;7.518;2022-07-23T05:43:09;9.05;;;8.00;;
10056;SDS011;5068;51.286;7.518;2022-07-23T05:44:43;9.27;;;8.38;;
10056;SDS011;5068;51.286;7.518;2022-07-23T05:46:16;9.15;;;8.20;;
10056;SDS011;5068;51.286;7.518;2022-07-23T05:47:55;11.45;;;8.35;;
10056;SDS011;5068;51.286;7.518;2022-07-23T05:49:36;8.77;;;7.97;;
10056;SDS011;5068;51.286;7.518;2022-07-23T05:51:25;13.38;;;7.88;;
10056;SDS011;5068;51.286;7.518;2022-07-23T05:53:00;12.73;;;8.43;;
10056;SDS011;5068;51.286;7.518;2022-07-23T05:54:54;10.95;;;7.93;;
10056;SDS011;5068;51.286;7.518;2022-07-23T05:56:27;15.43;;;7.97;;
10056;SDS011;5068;51.286;7.518;2022-07-23T05:58:00;9.00;;;8.10;;
10056;SDS011;5068;51.286;7.518;2022-07-23T05:59:35;10.60;;;8.45;;
10056;SDS011;5068;51.286;7.518;2022-07-23T06:01:09;9.77;;;7.93;;
10056;SDS011;5068;51.286;7.518;2022-07-23T06:02:51;8.73;;;7.82;;
10056;SDS011;5068;51.286;7.518;2022-07-23T06:04:27;9.07;;;8.07;;
10056;SDS011;5068;51.286;7.518;2022-07-23T06:06:18;12.68;;;8.45;;
10056;SDS011;5068;51.286;7.518;2022-07-23T06:07:52;13.07;;;8.13;;
10056;SDS011;5068;51.286;7.518;2022-07-23T06:09:28;11.52;;;8.73;;
10056;SDS011;5068;51.286;7.518;2022-07-23T06:11:02;20.88;;;10.18;;
10056;SDS011;5068;51.286;7.518;2022-07-23T06:12:35;11.05;;;9.85;;
10056;SDS011;5068;51.286;7.518;2022-07-23T06:14:10;11.82;;;10.65;;
10056;SDS011;5068;51.286;7.518;2022-07-23T06:15:51;12.88;;;10.75;;
10056;SDS011;5068;51.286;7.518;2022-07-23T06:17:25;16.00;;;11.82;;
10056;SDS011;5068;51.286;7.518;2022-07-23T06:18:59;13.10;;;11.65;;
10056;SDS011;5068;51.286;7.518;2022-07-23T06:20:35;12.23;;;11.02;;
10056;SDS011;5068;51.286;7.518;2022-07-23T06:22:08;12.75;;;11.45;;
10056;SDS011;5068;51.286;7.518;2022-07-23T06:23:42;15.20;;;12.10;;
10056;SDS011;5068;51.286;7.518;2022-07-23T06:25:15;15.77;;;12.20;;
10056;SDS011;5068;51.286;7.518;2022-07-23T06:26:50;13.73;;;11.80;;
10056;SDS011;5068;51.286;7.518;2022-07-23T06:28:24;16.05;;;12.40;;
10056;SDS011;5068;51.286;7.518;2022-07-23T06:29:58;13.30;;;11.90;;
10056;SDS011;5068;51.286;7.518;2022-07-23T06:31:31;14.48;;;11.23;;
10056;SDS011;5068;51.286;7.518;2022-07-23T06:33:04;13.13;;;11.82;;
10056;SDS011;5068;51.286;7.518;2022-07-23T06:34:37;12.18;;;10.88;;
10056;SDS011;5068;51.286;7.518;2022-07-23T06:36:19;13.15;;;11.00;;
10056;SDS011;5068;51.286;7.518;2022-07-23T06:37:53;11.98;;;10.70;;
10056;SDS011;5068;51.286;7.518;2022-07-23T06:39:26;12.98;;;11.02;;
10056;SDS011;5068;51.286;7.518;2022-07-23T06:41:03;12.32;;;11.05;;
10056;SDS011;5068;51.286;7.518;2022-07-23T06:42:37;10.95;;;9.82;;
10056;SDS011;5068;51.286;7.518;2022-07-23T06:44:11;12.00;;;10.73;;
10056;SDS011;5068;51.286;7.518;2022-07-23T06:45:46;12.73;;;11.18;;
10056;SDS011;5068;51.286;7.518;2022-07-23T06:47:20;12.48;;;11.18;;
10056;SDS011;5068;51.286;7.518;2022-07-23T06:48:54;11.63;;;10.52;;
10056;SDS011;5068;51.286;7.518;2022-07-23T06:50:27;12.07;;;10.43;;
10056;SDS011;5068;51.286;7.518;2022-07-23T06:52:02;12.40;;;9.82;;
10056;SDS011;5068;51.286;7.518;2022-07-23T06:53:37;12.00;;;10.80;;
10056;SDS011;5068;51.286;7.518;2022-07-23T06:55:13;12.07;;;10.82;;
10056;SDS011;5068;51.286;7.518;2022-07-23T06:56:50;12.05;;;10.60;;
10056;SDS011;5068;51.286;7.518;2022-07-23T06:58:24;11.50;;;10.40;;
10056;SDS011;5068;51.286;7.518;2022-07-23T06:59:56;11.27;;;10.18;;
10056;SDS011;5068;51.286;7.518;2022-07-23T07:01:30;12.07;;;10.80;;
10056;SDS011;5068;51.286;7.518;2022-07-23T07:03:03;12.60;;;11.15;;
10056;SDS011;5068;51.286;7.518;2022-07-23T07:04:38;15.40;;;11.80;;
10056;SDS011;5068;51.286;7.518;2022-07-23T07:06:11;12.70;;;11.18;;
10056;SDS011;5068;51.286;7.518;2022-07-23T07:07:46;12.98;;;11.57;;
10056;SDS011;5068;51.286;7.518;2022-07-23T07:09:19;14.60;;;11.80;;
10056;SDS011;5068;51.286;7.518;2022-07-23T07:10:52;14.43;;;12.35;;
10056;SDS011;5068;51.286;7.518;2022-07-23T07:12:27;13.55;;;12.10;;
10056;SDS011;5068;51.286;7.518;2022-07-23T07:14:01;13.63;;;12.23;;
10056;SDS011;5068;51.286;7.518;2022-07-23T07:15:35;13.82;;;11.75;;
10056;SDS011;5068;51.286;7.518;2022-07-23T07:17:09;12.73;;;11.43;;
10056;SDS011;5068;51.286;7.518;2022-07-23T07:18:42;13.20;;;11.80;;
10056;SDS011;5068;51.286;7.518;2022-07-23T07:20:16;15.88;;;12.43;;
10056;SDS011;5068;51.286;7.518;2022-07-23T07:21:49;15.85;;;13.13;;
10056;SDS011;5068;51.286;7.518;2022-07-23T07:23:23;14.40;;;12.90;;
10056;SDS011;5068;51.286;7.518;2022-07-23T07:24:57;14.43;;;12.45;;
10056;SDS011;5068;51.286;7.518;2022-07-23T07:26:30;13.93;;;12.38;;
10056;SDS011;5068;51.286;7.518;2022-07-23T07:28:05;14.48;;;12.85;;
10056;SDS011;5068;51.286;7.518;2022-07-23T07:29:39;15.00;;;12.32;;
10056;SDS011;5068;51.286;7.518;2022-07-23T07:31:13;14.90;;;13.40;;
10056;SDS011;5068;51.286;7.518;2022-07-23T07:32:46;15.15;;;12.75;;
10056;SDS011;5068;51.286;7.518;2022-07-23T07:34:29;14.07;;;12.02;;
10056;SDS011;5068;51.286;7.518;2022-07-23T07:36:02;16.63;;;13.70;;
10056;SDS011;5068;51.286;7.518;2022-07-23T07:37:37;14.68;;;12.60;;
10056;SDS011;5068;51.286;7.518;2022-07-23T07:39:10;13.27;;;11.95;;
10056;SDS011;5068;51.286;7.518;2022-07-23T07:40:44;14.10;;;12.50;;
10056;SDS011;5068;51.286;7.518;2022-07-23T07:42:17;16.17;;;12.90;;
10056;SDS011;5068;51.286;7.518;2022-07-23T07:43:52;14.27;;;12.77;;
10056;SDS011;5068;51.286;7.518;2022-07-23T07:45:26;15.18;;;12.48;;
10056;SDS011;5068;51.286;7.518;2022-07-23T07:46:59;14.38;;;12.88;;
10056;SDS011;5068;51.286;7.518;2022-07-23T07:48:33;13.98;;;12.35;;
10056;SDS011;5068;51.286;7.518;2022-07-23T07:50:06;14.10;;;12.48;;
10056;SDS011;5068;51.286;7.518;2022-07-23T07:51:42;13.55;;;11.95;;
10056;SDS011;5068;51.286;7.518;2022-07-23T07:53:16;14.68;;;12.27;;
10056;SDS011;5068;51.286;7.518;2022-07-23T07:54:50;13.70;;;11.77;;
10056;SDS011;5068;51.286;7.518;2022-07-23T07:56:24;12.70;;;11.43;;
10056;SDS011;5068;51.286;7.518;2022-07-23T07:57:59;14.48;;;12.10;;
10056;SDS011;5068;51.286;7.518;2022-07-23T07:59:34;12.82;;;11.63;;
10056;SDS011;5068;51.286;7.518;2022-07-23T08:01:07;24.17;;;12.73;;
10056;SDS011;5068;51.286;7.518;2022-07-23T08:02:42;14.10;;;12.38;;
10056;SDS011;5068;51.286;7.518;2022-07-23T08:04:19;14.25;;;12.75;;
10056;SDS011;5068;51.286;7.518;2022-07-23T08:05:52;13.93;;;12.50;;
10056;SDS011;5068;51.286;7.518;2022-07-23T08:07:26;13.52;;;12.15;;
10056;SDS011;5068;51.286;7.518;2022-07-23T08:08:59;14.77;;;13.27;;
10056;SDS011;5068;51.286;7.518;2022-07-23T08:10:33;14.20;;;12.70;;
10056;SDS011;5068;51.286;7.518;2022-07-23T08:12:07;13.88;;;12.57;;
10056;SDS011;5068;51.286;7.518;2022-07-23T08:13:40;13.10;;;11.80;;
10056;SDS011;5068;51.286;7.518;2022-07-23T08:15:17;13.63;;;12.32;;
10056;SDS011;5068;51.286;7.518;2022-07-23T08:16:52;13.80;;;12.50;;
10056;SDS011;5068;51.286;7.518;2022-07-23T08:18:45;13.23;;;12.02;;
10056;SDS011;5068;51.286;7.518;2022-07-23T08:20:19;12.65;;;11.32;;
10056;SDS011;5068;51.286;7.518;2022-07-23T08:21:55;13.25;;;11.95;;
10056;SDS011;5068;51.286;7.518;2022-07-23T08:23:29;13.05;;;11.75;;
10056;SDS011;5068;51.286;7.518;2022-07-23T08:25:02;11.82;;;10.63;;
10056;SDS011;5068;51.286;7.518;2022-07-23T08:26:37;13.50;;;12.13;;
10056;SDS011;5068;51.286;7.518;2022-07-23T08:28:11;19.63;;;12.88;;
10056;SDS011;5068;51.286;7.518;2022-07-23T08:29:47;13.63;;;12.30;;
10056;SDS011;5068;51.286;7.518;2022-07-23T08:31:22;14.60;;;13.20;;
10056;SDS011;5068;51.286;7.518;2022-07-23T08:32:57;13.88;;;12.48;;
10056;SDS011;5068;51.286;7.518;2022-07-23T08:34:33;12.35;;;11.25;;
10056;SDS011;5068;51.286;7.518;2022-07-23T08:36:11;14.43;;;13.02;;
10056;SDS011;5068;51.286;7.518;2022-07-23T08:37:45;13.52;;;12.32;;
10056;SDS011;5068;51.286;7.518;2022-07-23T08:39:17;14.35;;;12.95;;
10056;SDS011;5068;51.286;7.518;2022-07-23T08:40:53;13.07;;;11.85;;
10056;SDS011;5068;51.286;7.518;2022-07-23T08:42:28;12.43;;;11.23;;
10056;SDS011;5068;51.286;7.518;2022-07-23T08:44:02;12.65;;;11.45;;
10056;SDS011;5068;51.286;7.518;2022-07-23T08:45:41;12.50;;;11.20;;
10056;SDS011;5068;51.286;7.518;2022-07-23T08:47:18;12.77;;;11.57;;
10056;SDS011;5068;51.286;7.518;2022-07-23T08:48:52;13.20;;;11.90;;
10056;SDS011;5068;51.286;7.518;2022-07-23T08:50:27;12.35;;;11.23;;
10056;SDS011;5068;51.286;7.518;2022-07-23T08:52:00;12.55;;;11.38;;
10056;SDS011;5068;51.286;7.518;2022-07-23T08:53:35;11.27;;;10.20;;
10056;SDS011;5068;51.286;7.518;2022-07-23T08:55:10;12.02;;;10.75;;
10056;SDS011;5068;51.286;7.518;2022-07-23T08:56:43;12.10;;;11.00;;
10056;SDS011;5068;51.286;7.518;2022-07-23T08:58:17;12.45;;;11.35;;
10056;SDS011;5068;51.286;7.518;2022-07-23T08:59:58;12.93;;;10.85;;
10056;SDS011;5068;51.286;7.518;2022-07-23T09:01:32;11.65;;;10.65;;
10056;SDS011;5068;51.286;7.518;2022-07-23T09:03:07;10.50;;;9.50;;
10056;SDS011;5068;51.286;7.518;2022-07-23T09:04:49;11.20;;;9.98;;
10056;SDS011;5068;51.286;7.518;2022-07-23T09:06:23;12.07;;;10.98;;
10056;SDS011;5068;51.286;7.518;2022-07-23T09:08:04;10.80;;;9.75;;
10056;SDS011;5068;51.286;7.518;2022-07-23T09:09:43;11.07;;;9.95;;
10056;SDS011;5068;51.286;7.518;2022-07-23T09:11:17;11.75;;;10.55;;
10056;SDS011;5068;51.286;7.518;2022-07-23T09:12:51;12.40;;;11.20;;
10056;SDS011;5068;51.286;7.518;2022-07-23T09:14:35;11.88;;;10.77;;
10056;SDS011;5068;51.286;7.518;2022-07-23T09:16:11;12.38;;;11.20;;
10056;SDS011;5068;51.286;7.518;2022-07-23T09:17:47;11.77;;;10.68;;
10056;SDS011;5068;51.286;7.518;2022-07-23T09:19:22;11.65;;;10.65;;
10056;SDS011;5068;51.286;7.518;2022-07-23T09:21:10;10.43;;;9.48;;
10056;SDS011;5068;51.286;7.518;2022-07-23T09:22:56;11.25;;;10.15;;
10056;SDS011;5068;51.286;7.518;2022-07-23T09:26:37;11.45;;;10.55;;
10056;SDS011;5068;51.286;7.518;2022-07-23T09:28:13;11.18;;;10.20;;